sensor_id;sensor_type;location;lat;lon;timestamp;temperature;humidity
6008;DHT22;3032;49.484;11.112;2023-04-04T00:01:29;4.60;85.30
6008;DHT22;3032;49.484;11.112;2023-04-04T00:03:55;4.40;84.30
6008;DHT22;3032;49.484;11.112;2023-04-04T00:06:21;4.00;84.30
6008;DHT22;3032;49.484;11.112;2023-04-04T00:08:47;4.00;85.80
6008;DHT22;3032;49.484;11.112;2023-04-04T00:11:12;4.00;86.10
6008;DHT22;3032;49.484;11.112;2023-04-04T00:13:39;3.90;85.00
6008;DHT22;3032;49.484;11.112;2023-04-04T00:16:05;3.50;86.10
6008;DHT22;3032;49.484;11.112;2023-04-04T00:18:31;3.10;88.40
6008;DHT22;3032;49.484;11.112;2023-04-04T00:20:57;3.20;89.20
6008;DHT22;3032;49.484;11.112;2023-04-04T00:23:23;3.30;89.10
6008;DHT22;3032;49.484;11.112;2023-04-04T00:25:51;3.30;89.00
6008;DHT22;3032;49.484;11.112;2023-04-04T00:28:18;3.10;90.10
6008;DHT22;3032;49.484;11.112;2023-04-04T00:30:45;2.90;91.10
6008;DHT22;3032;49.484;11.112;2023-04-04T00:33:11;3.00;91.20
6008;DHT22;3032;49.484;11.112;2023-04-04T00:35:37;2.80;91.60
6008;DHT22;3032;49.484;11.112;2023-04-04T00:38:02;2.60;92.10
6008;DHT22;3032;49.484;11.112;2023-04-04T00:40:28;2.40;93.00
6008;DHT22;3032;49.484;11.112;2023-04-04T00:42:54;2.40;93.70
6008;DHT22;3032;49.484;11.112;2023-04-04T00:45:20;2.50;93.00
6008;DHT22;3032;49.484;11.112;2023-04-04T00:47:45;2.30;94.00
6008;DHT22;3032;49.484;11.112;2023-04-04T00:50:11;2.50;94.30
6008;DHT22;3032;49.484;11.112;2023-04-04T00:52:37;2.80;93.40
6008;DHT22;3032;49.484;11.112;2023-04-04T00:55:03;3.00;92.60
6008;DHT22;3032;49.484;11.112;2023-04-04T00:57:29;2.70;91.20
6008;DHT22;3032;49.484;11.112;2023-04-04T00:59:57;2.60;91.40
6008;DHT22;3032;49.484;11.112;2023-04-04T01:02:23;2.50;90.00
6008;DHT22;3032;49.484;11.112;2023-04-04T01:04:50;2.30;90.40
6008;DHT22;3032;49.484;11.112;2023-04-04T01:07:17;2.20;90.20
6008;DHT22;3032;49.484;11.112;2023-04-04T01:09:43;2.30;90.50
6008;DHT22;3032;49.484;11.112;2023-04-04T01:12:09;2.40;90.00
6008;DHT22;3032;49.484;11.112;2023-04-04T01:14:34;2.40;89.20
6008;DHT22;3032;49.484;11.112;2023-04-04T01:17:00;2.40;89.00
6008;DHT22;3032;49.484;11.112;2023-04-04T01:19:35;1.90;88.50
6008;DHT22;3032;49.484;11.112;2023-04-04T01:22:03;1.80;88.50
6008;DHT22;3032;49.484;11.112;2023-04-04T01:24:32;1.90;89.10
6008;DHT22;3032;49.484;11.112;2023-04-04T01:26:59;1.70;87.50
6008;DHT22;3032;49.484;11.112;2023-04-04T01:29:25;1.70;88.70
6008;DHT22;3032;49.484;11.112;2023-04-04T01:32:08;2.00;88.40
6008;DHT22;3032;49.484;11.112;2023-04-04T01:34:52;2.10;86.40
6008;DHT22;3032;49.484;11.112;2023-04-04T01:37:20;1.80;86.00
6008;DHT22;3032;49.484;11.112;2023-04-04T01:39:55;2.00;86.70
6008;DHT22;3032;49.484;11.112;2023-04-04T01:42:25;2.20;85.40
6008;DHT22;3032;49.484;11.112;2023-04-04T01:44:55;2.30;86.50
6008;DHT22;3032;49.484;11.112;2023-04-04T01:47:21;2.40;86.00
6008;DHT22;3032;49.484;11.112;2023-04-04T01:49:47;2.60;85.50
6008;DHT22;3032;49.484;11.112;2023-04-04T01:52:13;2.70;85.90
6008;DHT22;3032;49.484;11.112;2023-04-04T01:54:39;2.60;84.50
6008;DHT22;3032;49.484;11.112;2023-04-04T01:57:04;2.60;85.90
6008;DHT22;3032;49.484;11.112;2023-04-04T01:59:30;2.70;84.90
6008;DHT22;3032;49.484;11.112;2023-04-04T02:01:56;2.70;84.50
6008;DHT22;3032;49.484;11.112;2023-04-04T02:04:21;2.70;85.30
6008;DHT22;3032;49.484;11.112;2023-04-04T02:06:47;2.50;84.80
6008;DHT22;3032;49.484;11.112;2023-04-04T02:09:12;2.80;84.70
6008;DHT22;3032;49.484;11.112;2023-04-04T02:11:38;2.80;85.00
6008;DHT22;3032;49.484;11.112;2023-04-04T02:14:04;2.70;84.90
6008;DHT22;3032;49.484;11.112;2023-04-04T02:16:30;2.80;85.60
6008;DHT22;3032;49.484;11.112;2023-04-04T02:18:56;2.60;85.00
6008;DHT22;3032;49.484;11.112;2023-04-04T02:21:21;2.60;85.60
6008;DHT22;3032;49.484;11.112;2023-04-04T02:23:47;2.50;85.60
6008;DHT22;3032;49.484;11.112;2023-04-04T02:26:12;2.50;85.80
6008;DHT22;3032;49.484;11.112;2023-04-04T02:28:38;2.40;86.30
6008;DHT22;3032;49.484;11.112;2023-04-04T02:31:04;2.40;86.20
6008;DHT22;3032;49.484;11.112;2023-04-04T02:33:30;2.40;87.10
6008;DHT22;3032;49.484;11.112;2023-04-04T02:35:59;2.40;87.60
6008;DHT22;3032;49.484;11.112;2023-04-04T02:38:25;2.40;88.20
6008;DHT22;3032;49.484;11.112;2023-04-04T02:40:52;2.30;87.30
6008;DHT22;3032;49.484;11.112;2023-04-04T02:43:17;2.20;87.90
6008;DHT22;3032;49.484;11.112;2023-04-04T02:45:43;2.00;87.80
6008;DHT22;3032;49.484;11.112;2023-04-04T02:48:08;2.00;88.30
6008;DHT22;3032;49.484;11.112;2023-04-04T02:50:37;1.90;88.90
6008;DHT22;3032;49.484;11.112;2023-04-04T02:53:03;1.80;88.50
6008;DHT22;3032;49.484;11.112;2023-04-04T02:55:28;1.80;88.70
6008;DHT22;3032;49.484;11.112;2023-04-04T02:57:54;1.80;88.30
6008;DHT22;3032;49.484;11.112;2023-04-04T03:00:20;1.80;89.00
6008;DHT22;3032;49.484;11.112;2023-04-04T03:02:55;1.80;88.10
6008;DHT22;3032;49.484;11.112;2023-04-04T03:05:23;1.80;88.20
6008;DHT22;3032;49.484;11.112;2023-04-04T03:07:55;1.80;88.60
6008;DHT22;3032;49.484;11.112;2023-04-04T03:10:25;1.80;88.70
6008;DHT22;3032;49.484;11.112;2023-04-04T03:12:51;1.70;89.40
6008;DHT22;3032;49.484;11.112;2023-04-04T03:15:17;1.70;88.70
6008;DHT22;3032;49.484;11.112;2023-04-04T03:17:43;1.70;89.60
6008;DHT22;3032;49.484;11.112;2023-04-04T03:20:10;1.70;90.10
6008;DHT22;3032;49.484;11.112;2023-04-04T03:22:36;1.60;90.50
6008;DHT22;3032;49.484;11.112;2023-04-04T03:25:02;1.60;90.30
6008;DHT22;3032;49.484;11.112;2023-04-04T03:27:30;1.60;90.30
6008;DHT22;3032;49.484;11.112;2023-04-04T03:29:55;1.60;90.80
6008;DHT22;3032;49.484;11.112;2023-04-04T03:32:21;1.60;91.10
6008;DHT22;3032;49.484;11.112;2023-04-04T03:34:46;1.50;91.70
6008;DHT22;3032;49.484;11.112;2023-04-04T03:37:12;1.50;91.40
6008;DHT22;3032;49.484;11.112;2023-04-04T03:39:38;1.70;91.80
6008;DHT22;3032;49.484;11.112;2023-04-04T03:42:03;1.20;92.20
6008;DHT22;3032;49.484;11.112;2023-04-04T03:44:29;1.60;92.40
6008;DHT22;3032;49.484;11.112;2023-04-04T03:46:54;1.20;92.30
6008;DHT22;3032;49.484;11.112;2023-04-04T03:49:20;1.20;92.20
6008;DHT22;3032;49.484;11.112;2023-04-04T03:51:45;1.20;92.60
6008;DHT22;3032;49.484;11.112;2023-04-04T03:54:12;1.30;92.70
6008;DHT22;3032;49.484;11.112;2023-04-04T03:56:37;1.30;93.10
6008;DHT22;3032;49.484;11.112;2023-04-04T03:59:03;1.20;92.50
6008;DHT22;3032;49.484;11.112;2023-04-04T04:01:28;1.10;92.60
6008;DHT22;3032;49.484;11.112;2023-04-04T04:03:54;0.80;93.10
6008;DHT22;3032;49.484;11.112;2023-04-04T04:06:20;0.50;94.00
6008;DHT22;3032;49.484;11.112;2023-04-04T04:08:45;0.20;95.50
6008;DHT22;3032;49.484;11.112;2023-04-04T04:11:11;0.10;96.20
6008;DHT22;3032;49.484;11.112;2023-04-04T04:13:36;0.20;96.20
6008;DHT22;3032;49.484;11.112;2023-04-04T04:16:03;0.00;96.50
6008;DHT22;3032;49.484;11.112;2023-04-04T04:18:29;0.10;97.00
6008;DHT22;3032;49.484;11.112;2023-04-04T04:20:58;0.30;96.70
6008;DHT22;3032;49.484;11.112;2023-04-04T04:23:26;0.60;96.20
6008;DHT22;3032;49.484;11.112;2023-04-04T04:25:51;0.50;96.30
6008;DHT22;3032;49.484;11.112;2023-04-04T04:28:17;0.10;97.90
6008;DHT22;3032;49.484;11.112;2023-04-04T04:30:42;0.00;99.20
6008;DHT22;3032;49.484;11.112;2023-04-04T04:33:09;0.10;99.50
6008;DHT22;3032;49.484;11.112;2023-04-04T04:35:38;0.20;99.30
6008;DHT22;3032;49.484;11.112;2023-04-04T04:38:07;0.30;98.60
6008;DHT22;3032;49.484;11.112;2023-04-04T04:40:34;0.30;98.00
6008;DHT22;3032;49.484;11.112;2023-04-04T04:43:01;0.00;98.60
6008;DHT22;3032;49.484;11.112;2023-04-04T04:45:26;-0.50;99.90
6008;DHT22;3032;49.484;11.112;2023-04-04T04:47:52;-0.60;99.90
6008;DHT22;3032;49.484;11.112;2023-04-04T04:50:18;-0.70;99.90
6008;DHT22;3032;49.484;11.112;2023-04-04T04:52:43;-0.50;99.90
6008;DHT22;3032;49.484;11.112;2023-04-04T04:55:09;-0.40;99.90
6008;DHT22;3032;49.484;11.112;2023-04-04T04:57:36;-0.10;99.90
6008;DHT22;3032;49.484;11.112;2023-04-04T05:00:02;0.10;99.90
6008;DHT22;3032;49.484;11.112;2023-04-04T05:02:29;0.20;99.90
6008;DHT22;3032;49.484;11.112;2023-04-04T05:04:54;0.30;99.90
6008;DHT22;3032;49.484;11.112;2023-04-04T05:07:20;0.40;98.60
6008;DHT22;3032;49.484;11.112;2023-04-04T05:09:46;0.40;98.30
6008;DHT22;3032;49.484;11.112;2023-04-04T05:12:12;0.30;99.10
6008;DHT22;3032;49.484;11.112;2023-04-04T05:14:37;0.10;99.20
6008;DHT22;3032;49.484;11.112;2023-04-04T05:17:03;0.10;99.70
6008;DHT22;3032;49.484;11.112;2023-04-04T05:19:28;0.30;99.30
6008;DHT22;3032;49.484;11.112;2023-04-04T05:21:54;0.40;99.10
6008;DHT22;3032;49.484;11.112;2023-04-04T05:24:20;0.50;98.40
6008;DHT22;3032;49.484;11.112;2023-04-04T05:26:47;0.70;98.20
6008;DHT22;3032;49.484;11.112;2023-04-04T05:29:12;0.80;97.40
6008;DHT22;3032;49.484;11.112;2023-04-04T05:31:38;0.60;97.40
6008;DHT22;3032;49.484;11.112;2023-04-04T05:34:03;0.40;97.90
6008;DHT22;3032;49.484;11.112;2023-04-04T05:36:35;0.30;98.90
6008;DHT22;3032;49.484;11.112;2023-04-04T05:39:04;0.30;99.30
6008;DHT22;3032;49.484;11.112;2023-04-04T05:41:30;0.90;98.80
6008;DHT22;3032;49.484;11.112;2023-04-04T05:43:56;3.00;96.00
6008;DHT22;3032;49.484;11.112;2023-04-04T05:46:22;4.90;91.40
6008;DHT22;3032;49.484;11.112;2023-04-04T05:48:48;6.70;85.80
6008;DHT22;3032;49.484;11.112;2023-04-04T05:51:15;7.80;80.80
6008;DHT22;3032;49.484;11.112;2023-04-04T05:53:41;8.10;75.70
6008;DHT22;3032;49.484;11.112;2023-04-04T05:56:06;8.70;73.00
6008;DHT22;3032;49.484;11.112;2023-04-04T05:58:32;9.60;72.00
6008;DHT22;3032;49.484;11.112;2023-04-04T06:00:58;9.80;68.00
6008;DHT22;3032;49.484;11.112;2023-04-04T06:03:23;10.40;66.70
6008;DHT22;3032;49.484;11.112;2023-04-04T06:05:52;11.20;63.30
6008;DHT22;3032;49.484;11.112;2023-04-04T06:08:18;12.80;60.20
6008;DHT22;3032;49.484;11.112;2023-04-04T06:10:43;13.00;57.60
6008;DHT22;3032;49.484;11.112;2023-04-04T06:13:09;13.40;57.10
6008;DHT22;3032;49.484;11.112;2023-04-04T06:15:34;13.50;55.40
6008;DHT22;3032;49.484;11.112;2023-04-04T06:18:00;14.40;54.70
6008;DHT22;3032;49.484;11.112;2023-04-04T06:20:26;13.20;51.60
6008;DHT22;3032;49.484;11.112;2023-04-04T06:22:51;12.70;52.90
6008;DHT22;3032;49.484;11.112;2023-04-04T06:25:17;13.50;53.60
6008;DHT22;3032;49.484;11.112;2023-04-04T06:27:43;14.70;52.60
6008;DHT22;3032;49.484;11.112;2023-04-04T06:30:09;14.30;49.80
6008;DHT22;3032;49.484;11.112;2023-04-04T06:32:35;13.10;50.80
6008;DHT22;3032;49.484;11.112;2023-04-04T06:35:01;12.90;51.30
6008;DHT22;3032;49.484;11.112;2023-04-04T06:37:26;11.20;51.60
6008;DHT22;3032;49.484;11.112;2023-04-04T06:39:52;11.60;53.90
6008;DHT22;3032;49.484;11.112;2023-04-04T06:42:18;11.50;53.40
6008;DHT22;3032;49.484;11.112;2023-04-04T06:44:43;10.80;53.10
6008;DHT22;3032;49.484;11.112;2023-04-04T06:47:10;11.10;53.90
6008;DHT22;3032;49.484;11.112;2023-04-04T06:49:35;10.60;54.50
6008;DHT22;3032;49.484;11.112;2023-04-04T06:52:01;10.60;54.30
6008;DHT22;3032;49.484;11.112;2023-04-04T06:54:26;9.50;56.10
6008;DHT22;3032;49.484;11.112;2023-04-04T06:56:52;8.70;57.90
6008;DHT22;3032;49.484;11.112;2023-04-04T06:59:18;8.80;59.10
6008;DHT22;3032;49.484;11.112;2023-04-04T07:01:44;10.60;58.60
6008;DHT22;3032;49.484;11.112;2023-04-04T07:04:09;11.80;55.10
6008;DHT22;3032;49.484;11.112;2023-04-04T07:06:35;11.70;55.30
6008;DHT22;3032;49.484;11.112;2023-04-04T07:09:00;12.30;54.80
6008;DHT22;3032;49.484;11.112;2023-04-04T07:11:28;13.60;53.70
6008;DHT22;3032;49.484;11.112;2023-04-04T07:13:54;14.50;50.90
6008;DHT22;3032;49.484;11.112;2023-04-04T07:16:20;13.70;51.00
6008;DHT22;3032;49.484;11.112;2023-04-04T07:18:46;11.70;52.80
6008;DHT22;3032;49.484;11.112;2023-04-04T07:21:11;11.30;54.70
6008;DHT22;3032;49.484;11.112;2023-04-04T07:23:37;11.70;54.10
6008;DHT22;3032;49.484;11.112;2023-04-04T07:26:03;13.20;53.40
6008;DHT22;3032;49.484;11.112;2023-04-04T07:28:29;12.20;52.20
6008;DHT22;3032;49.484;11.112;2023-04-04T07:30:58;11.40;53.60
6008;DHT22;3032;49.484;11.112;2023-04-04T07:33:25;12.60;53.20
6008;DHT22;3032;49.484;11.112;2023-04-04T07:35:51;11.70;53.40
6008;DHT22;3032;49.484;11.112;2023-04-04T07:38:17;13.20;54.10
6008;DHT22;3032;49.484;11.112;2023-04-04T07:40:43;14.90;52.00
6008;DHT22;3032;49.484;11.112;2023-04-04T07:43:09;16.10;49.60
6008;DHT22;3032;49.484;11.112;2023-04-04T07:45:35;16.90;48.50
6008;DHT22;3032;49.484;11.112;2023-04-04T07:48:00;15.80;47.60
6008;DHT22;3032;49.484;11.112;2023-04-04T07:50:26;15.70;46.90
6008;DHT22;3032;49.484;11.112;2023-04-04T07:52:52;14.80;48.40
6008;DHT22;3032;49.484;11.112;2023-04-04T07:55:20;15.40;48.50
6008;DHT22;3032;49.484;11.112;2023-04-04T07:57:46;15.70;48.30
6008;DHT22;3032;49.484;11.112;2023-04-04T08:00:12;15.70;47.60
6008;DHT22;3032;49.484;11.112;2023-04-04T08:02:38;17.70;46.30
6008;DHT22;3032;49.484;11.112;2023-04-04T08:05:04;17.10;45.40
6008;DHT22;3032;49.484;11.112;2023-04-04T08:07:30;17.50;44.70
6008;DHT22;3032;49.484;11.112;2023-04-04T08:09:56;15.40;44.60
6008;DHT22;3032;49.484;11.112;2023-04-04T08:12:21;14.50;44.60
6008;DHT22;3032;49.484;11.112;2023-04-04T08:14:47;13.80;46.10
6008;DHT22;3032;49.484;11.112;2023-04-04T08:17:12;12.60;46.20
6008;DHT22;3032;49.484;11.112;2023-04-04T08:19:43;10.30;47.50
6008;DHT22;3032;49.484;11.112;2023-04-04T08:22:08;7.80;51.80
6008;DHT22;3032;49.484;11.112;2023-04-04T08:24:34;6.90;55.10
6008;DHT22;3032;49.484;11.112;2023-04-04T08:27:01;6.10;54.30
6008;DHT22;3032;49.484;11.112;2023-04-04T08:29:26;6.20;55.00
6008;DHT22;3032;49.484;11.112;2023-04-04T08:31:53;5.90;57.50
6008;DHT22;3032;49.484;11.112;2023-04-04T08:34:18;6.30;57.00
6008;DHT22;3032;49.484;11.112;2023-04-04T08:36:45;6.10;57.20
6008;DHT22;3032;49.484;11.112;2023-04-04T08:39:10;6.00;57.90
6008;DHT22;3032;49.484;11.112;2023-04-04T08:41:37;6.30;57.30
6008;DHT22;3032;49.484;11.112;2023-04-04T08:44:04;6.90;58.50
6008;DHT22;3032;49.484;11.112;2023-04-04T08:46:31;7.50;58.80
6008;DHT22;3032;49.484;11.112;2023-04-04T08:48:57;8.30;58.00
6008;DHT22;3032;49.484;11.112;2023-04-04T08:51:25;8.50;56.50
6008;DHT22;3032;49.484;11.112;2023-04-04T08:53:54;8.30;54.70
6008;DHT22;3032;49.484;11.112;2023-04-04T08:56:22;7.20;56.30
6008;DHT22;3032;49.484;11.112;2023-04-04T08:58:48;6.50;57.10
6008;DHT22;3032;49.484;11.112;2023-04-04T09:01:13;5.90;58.80
6008;DHT22;3032;49.484;11.112;2023-04-04T09:03:42;5.50;58.50
6008;DHT22;3032;49.484;11.112;2023-04-04T09:06:08;5.20;59.80
6008;DHT22;3032;49.484;11.112;2023-04-04T09:08:34;5.10;61.00
6008;DHT22;3032;49.484;11.112;2023-04-04T09:11:02;5.00;61.50
6008;DHT22;3032;49.484;11.112;2023-04-04T09:13:27;5.50;61.40
6008;DHT22;3032;49.484;11.112;2023-04-04T09:15:54;5.10;62.50
6008;DHT22;3032;49.484;11.112;2023-04-04T09:18:22;5.30;61.30
6008;DHT22;3032;49.484;11.112;2023-04-04T09:20:48;5.30;61.40
6008;DHT22;3032;49.484;11.112;2023-04-04T09:23:15;5.40;61.10
6008;DHT22;3032;49.484;11.112;2023-04-04T09:28:15;5.30;60.50
6008;DHT22;3032;49.484;11.112;2023-04-04T09:30:41;5.00;61.00
6008;DHT22;3032;49.484;11.112;2023-04-04T09:33:09;5.20;61.60
6008;DHT22;3032;49.484;11.112;2023-04-04T09:35:36;5.20;62.60
6008;DHT22;3032;49.484;11.112;2023-04-04T09:38:05;5.70;62.80
6008;DHT22;3032;49.484;11.112;2023-04-04T09:40:31;6.30;61.20
6008;DHT22;3032;49.484;11.112;2023-04-04T09:43:02;7.60;59.60
6008;DHT22;3032;49.484;11.112;2023-04-04T09:45:32;7.30;56.60
6008;DHT22;3032;49.484;11.112;2023-04-04T09:47:59;6.60;57.30
6008;DHT22;3032;49.484;11.112;2023-04-04T09:50:25;6.50;58.90
6008;DHT22;3032;49.484;11.112;2023-04-04T09:52:56;7.10;57.30
6008;DHT22;3032;49.484;11.112;2023-04-04T09:55:33;7.50;57.30
6008;DHT22;3032;49.484;11.112;2023-04-04T09:58:02;7.90;56.20
6008;DHT22;3032;49.484;11.112;2023-04-04T10:00:39;9.10;54.60
6008;DHT22;3032;49.484;11.112;2023-04-04T10:03:06;8.80;54.40
6008;DHT22;3032;49.484;11.112;2023-04-04T10:05:32;9.50;54.80
6008;DHT22;3032;49.484;11.112;2023-04-04T10:07:58;8.60;54.30
6008;DHT22;3032;49.484;11.112;2023-04-04T10:10:25;8.20;55.90
6008;DHT22;3032;49.484;11.112;2023-04-04T10:12:52;7.70;56.00
6008;DHT22;3032;49.484;11.112;2023-04-04T10:15:22;7.50;55.70
6008;DHT22;3032;49.484;11.112;2023-04-04T10:17:49;7.10;56.20
6008;DHT22;3032;49.484;11.112;2023-04-04T10:20:17;9.00;59.00
6008;DHT22;3032;49.484;11.112;2023-04-04T10:22:45;10.80;56.70
6008;DHT22;3032;49.484;11.112;2023-04-04T10:25:12;11.20;51.70
6008;DHT22;3032;49.484;11.112;2023-04-04T10:27:38;11.00;50.80
6008;DHT22;3032;49.484;11.112;2023-04-04T10:30:04;11.20;51.70
6008;DHT22;3032;49.484;11.112;2023-04-04T10:32:45;11.30;51.80
6008;DHT22;3032;49.484;11.112;2023-04-04T10:35:13;11.10;53.00
6008;DHT22;3032;49.484;11.112;2023-04-04T10:37:51;10.60;50.80
6008;DHT22;3032;49.484;11.112;2023-04-04T10:40:22;10.70;53.00
6008;DHT22;3032;49.484;11.112;2023-04-04T10:42:49;11.30;52.60
6008;DHT22;3032;49.484;11.112;2023-04-04T10:45:16;12.70;51.50
6008;DHT22;3032;49.484;11.112;2023-04-04T10:47:43;15.50;51.00
6008;DHT22;3032;49.484;11.112;2023-04-04T10:50:09;15.70;47.50
6008;DHT22;3032;49.484;11.112;2023-04-04T10:52:37;15.10;45.40
6008;DHT22;3032;49.484;11.112;2023-04-04T10:55:05;14.20;46.50
6008;DHT22;3032;49.484;11.112;2023-04-04T10:57:35;13.30;45.50
6008;DHT22;3032;49.484;11.112;2023-04-04T11:00:12;11.40;47.80
6008;DHT22;3032;49.484;11.112;2023-04-04T11:02:57;11.30;49.80
6008;DHT22;3032;49.484;11.112;2023-04-04T11:05:26;11.10;49.40
6008;DHT22;3032;49.484;11.112;2023-04-04T11:07:58;11.70;49.60
6008;DHT22;3032;49.484;11.112;2023-04-04T11:10:29;11.60;54.10
6008;DHT22;3032;49.484;11.112;2023-04-04T11:12:57;12.50;48.90
6008;DHT22;3032;49.484;11.112;2023-04-04T11:15:44;12.50;50.40
6008;DHT22;3032;49.484;11.112;2023-04-04T11:18:10;12.50;50.40
6008;DHT22;3032;49.484;11.112;2023-04-04T11:20:40;12.90;50.60
6008;DHT22;3032;49.484;11.112;2023-04-04T11:23:20;13.40;48.90
6008;DHT22;3032;49.484;11.112;2023-04-04T11:25:56;13.20;47.20
6008;DHT22;3032;49.484;11.112;2023-04-04T11:34:11;12.80;47.00
6008;DHT22;3032;49.484;11.112;2023-04-04T11:39:25;12.00;47.30
6008;DHT22;3032;49.484;11.112;2023-04-04T11:44:17;11.50;49.90
6008;DHT22;3032;49.484;11.112;2023-04-04T11:46:44;12.10;49.40
6008;DHT22;3032;49.484;11.112;2023-04-04T11:49:10;13.30;49.00
6008;DHT22;3032;49.484;11.112;2023-04-04T11:51:38;13.90;46.60
6008;DHT22;3032;49.484;11.112;2023-04-04T11:54:11;15.10;45.50
6008;DHT22;3032;49.484;11.112;2023-04-04T11:56:41;15.10;45.30
6008;DHT22;3032;49.484;11.112;2023-04-04T11:59:07;15.30;44.40
6008;DHT22;3032;49.484;11.112;2023-04-04T12:01:33;14.80;44.70
6008;DHT22;3032;49.484;11.112;2023-04-04T12:03:59;14.10;46.00
6008;DHT22;3032;49.484;11.112;2023-04-04T12:06:29;13.40;46.10
6008;DHT22;3032;49.484;11.112;2023-04-04T12:08:57;12.30;46.80
6008;DHT22;3032;49.484;11.112;2023-04-04T12:11:24;11.50;50.30
6008;DHT22;3032;49.484;11.112;2023-04-04T12:13:51;10.40;49.90
6008;DHT22;3032;49.484;11.112;2023-04-04T12:16:20;10.40;49.40
6008;DHT22;3032;49.484;11.112;2023-04-04T12:18:45;10.70;50.00
6008;DHT22;3032;49.484;11.112;2023-04-04T12:21:11;9.00;51.10
6008;DHT22;3032;49.484;11.112;2023-04-04T12:23:37;9.20;53.60
6008;DHT22;3032;49.484;11.112;2023-04-04T12:26:02;10.30;51.90
6008;DHT22;3032;49.484;11.112;2023-04-04T12:28:30;10.60;53.10
6008;DHT22;3032;49.484;11.112;2023-04-04T12:30:59;10.40;51.80
6008;DHT22;3032;49.484;11.112;2023-04-04T12:33:30;10.20;50.00
6008;DHT22;3032;49.484;11.112;2023-04-04T12:35:58;9.10;51.50
6008;DHT22;3032;49.484;11.112;2023-04-04T12:38:24;10.00;52.30
6008;DHT22;3032;49.484;11.112;2023-04-04T12:40:51;11.60;50.00
6008;DHT22;3032;49.484;11.112;2023-04-04T12:43:17;12.70;46.90
6008;DHT22;3032;49.484;11.112;2023-04-04T12:45:43;13.10;48.70
6008;DHT22;3032;49.484;11.112;2023-04-04T12:48:10;13.20;47.70
6008;DHT22;3032;49.484;11.112;2023-04-04T12:53:13;12.30;46.80
6008;DHT22;3032;49.484;11.112;2023-04-04T12:55:45;11.60;46.90
6008;DHT22;3032;49.484;11.112;2023-04-04T12:58:11;11.90;48.10
6008;DHT22;3032;49.484;11.112;2023-04-04T13:00:38;12.70;48.00
6008;DHT22;3032;49.484;11.112;2023-04-04T13:03:04;13.60;47.00
6008;DHT22;3032;49.484;11.112;2023-04-04T13:05:32;14.20;46.90
6008;DHT22;3032;49.484;11.112;2023-04-04T13:08:07;13.80;46.70
6008;DHT22;3032;49.484;11.112;2023-04-04T13:16:00;11.60;49.50
6008;DHT22;3032;49.484;11.112;2023-04-04T13:18:32;11.40;49.10
6008;DHT22;3032;49.484;11.112;2023-04-04T13:20:58;11.40;49.80
6008;DHT22;3032;49.484;11.112;2023-04-04T13:23:23;11.10;49.20
6008;DHT22;3032;49.484;11.112;2023-04-04T13:25:49;11.00;50.00
6008;DHT22;3032;49.484;11.112;2023-04-04T13:28:15;10.80;49.70
6008;DHT22;3032;49.484;11.112;2023-04-04T13:30:41;10.70;49.30
6008;DHT22;3032;49.484;11.112;2023-04-04T13:33:14;10.80;49.40
6008;DHT22;3032;49.484;11.112;2023-04-04T13:35:41;10.40;49.00
6008;DHT22;3032;49.484;11.112;2023-04-04T13:38:08;9.40;49.80
6008;DHT22;3032;49.484;11.112;2023-04-04T13:40:34;9.00;51.00
6008;DHT22;3032;49.484;11.112;2023-04-04T13:43:00;8.90;50.10
6008;DHT22;3032;49.484;11.112;2023-04-04T13:45:25;9.30;49.90
6008;DHT22;3032;49.484;11.112;2023-04-04T13:47:51;9.40;49.50
6008;DHT22;3032;49.484;11.112;2023-04-04T13:50:17;9.90;49.80
6008;DHT22;3032;49.484;11.112;2023-04-04T13:52:42;10.60;47.30
6008;DHT22;3032;49.484;11.112;2023-04-04T13:55:09;11.30;47.10
6008;DHT22;3032;49.484;11.112;2023-04-04T13:57:34;12.20;46.80
6008;DHT22;3032;49.484;11.112;2023-04-04T14:00:00;13.00;45.70
6008;DHT22;3032;49.484;11.112;2023-04-04T14:02:26;14.10;45.70
6008;DHT22;3032;49.484;11.112;2023-04-04T14:04:52;12.90;46.50
6008;DHT22;3032;49.484;11.112;2023-04-04T14:07:18;12.60;49.00
6008;DHT22;3032;49.484;11.112;2023-04-04T14:09:44;11.90;48.30
6008;DHT22;3032;49.484;11.112;2023-04-04T14:12:10;11.70;49.00
6008;DHT22;3032;49.484;11.112;2023-04-04T14:14:35;11.20;49.30
6008;DHT22;3032;49.484;11.112;2023-04-04T14:17:01;11.40;49.70
6008;DHT22;3032;49.484;11.112;2023-04-04T14:19:26;11.10;49.10
6008;DHT22;3032;49.484;11.112;2023-04-04T14:21:52;10.80;49.10
6008;DHT22;3032;49.484;11.112;2023-04-04T14:24:17;10.50;49.00
6008;DHT22;3032;49.484;11.112;2023-04-04T14:26:43;10.60;49.90
6008;DHT22;3032;49.484;11.112;2023-04-04T14:29:08;11.50;48.20
6008;DHT22;3032;49.484;11.112;2023-04-04T14:31:34;12.20;48.90
6008;DHT22;3032;49.484;11.112;2023-04-04T14:36:27;13.30;46.00
6008;DHT22;3032;49.484;11.112;2023-04-04T14:38:52;13.10;47.20
6008;DHT22;3032;49.484;11.112;2023-04-04T14:41:18;13.30;45.70
6008;DHT22;3032;49.484;11.112;2023-04-04T14:43:44;12.30;47.60
6008;DHT22;3032;49.484;11.112;2023-04-04T14:46:10;10.70;50.20
6008;DHT22;3032;49.484;11.112;2023-04-04T14:48:35;11.10;52.00
6008;DHT22;3032;49.484;11.112;2023-04-04T14:51:01;11.20;49.40
6008;DHT22;3032;49.484;11.112;2023-04-04T14:53:27;9.50;50.90
6008;DHT22;3032;49.484;11.112;2023-04-04T14:55:52;8.80;52.50
6008;DHT22;3032;49.484;11.112;2023-04-04T14:58:18;8.70;55.40
6008;DHT22;3032;49.484;11.112;2023-04-04T15:00:44;9.00;57.50
6008;DHT22;3032;49.484;11.112;2023-04-04T15:03:13;9.30;54.00
6008;DHT22;3032;49.484;11.112;2023-04-04T15:05:40;9.50;56.30
6008;DHT22;3032;49.484;11.112;2023-04-04T15:08:06;9.60;53.40
6008;DHT22;3032;49.484;11.112;2023-04-04T15:10:32;8.90;52.30
6008;DHT22;3032;49.484;11.112;2023-04-04T15:12:58;8.80;55.80
6008;DHT22;3032;49.484;11.112;2023-04-04T15:15:24;8.70;52.90
6008;DHT22;3032;49.484;11.112;2023-04-04T15:17:50;9.00;53.70
6008;DHT22;3032;49.484;11.112;2023-04-04T15:20:16;9.30;53.70
6008;DHT22;3032;49.484;11.112;2023-04-04T15:22:41;9.40;52.70
6008;DHT22;3032;49.484;11.112;2023-04-04T15:25:08;9.70;52.30
6008;DHT22;3032;49.484;11.112;2023-04-04T15:27:34;10.00;51.10
6008;DHT22;3032;49.484;11.112;2023-04-04T15:29:59;9.90;51.10
6008;DHT22;3032;49.484;11.112;2023-04-04T15:32:25;9.90;52.20
6008;DHT22;3032;49.484;11.112;2023-04-04T15:34:51;9.50;52.40
6008;DHT22;3032;49.484;11.112;2023-04-04T15:37:17;9.30;53.50
6008;DHT22;3032;49.484;11.112;2023-04-04T15:39:43;9.40;55.10
6008;DHT22;3032;49.484;11.112;2023-04-04T15:42:10;9.40;55.00
6008;DHT22;3032;49.484;11.112;2023-04-04T15:44:36;8.90;55.00
6008;DHT22;3032;49.484;11.112;2023-04-04T15:47:02;9.00;55.20
6008;DHT22;3032;49.484;11.112;2023-04-04T15:49:27;8.60;55.50
6008;DHT22;3032;49.484;11.112;2023-04-04T15:51:53;8.30;56.00
6008;DHT22;3032;49.484;11.112;2023-04-04T15:54:19;8.30;56.40
6008;DHT22;3032;49.484;11.112;2023-04-04T15:56:44;8.50;55.00
6008;DHT22;3032;49.484;11.112;2023-04-04T15:59:10;7.70;55.20
6008;DHT22;3032;49.484;11.112;2023-04-04T16:01:35;7.70;56.00
6008;DHT22;3032;49.484;11.112;2023-04-04T16:04:01;7.30;57.00
6008;DHT22;3032;49.484;11.112;2023-04-04T16:06:27;6.70;54.80
6008;DHT22;3032;49.484;11.112;2023-04-04T16:08:55;6.90;56.80
6008;DHT22;3032;49.484;11.112;2023-04-04T16:11:21;7.40;56.60
6008;DHT22;3032;49.484;11.112;2023-04-04T16:13:47;8.10;56.00
6008;DHT22;3032;49.484;11.112;2023-04-04T16:16:13;8.40;54.70